Time;durP1;ratioP1;P1;durP2;ratioP2;P2;SDS_P1;SDS_P2;PMS_P1;PMS_P2;Temp;Humidity;BMP_temperature;BMP_pressure;BME280_temperature;BME280_humidity;BME280_pressure;Samples;Min_cycle;Max_cycle;Signal;HPM_P1;HPM_P2
2021/09/13 00:01:41;;;;;;;10.35;1.98;;;20.30;84.40;;;;;;5153577;27;20063;-76
2021/09/13 00:04:10;;;;;;;9.85;1.90;;;20.30;84.40;;;;;;5153494;27;20030;-76
2021/09/13 00:06:35;;;;;;;8.35;1.73;;;20.30;84.40;;;;;;5152515;27;20026;-76
2021/09/13 00:09:01;;;;;;;13.70;1.75;;;20.30;84.20;;;;;;5152050;27;20019;-76
2021/09/13 00:11:26;;;;;;;12.65;2.78;;;20.30;84.20;;;;;;5152375;27;20459;-76
2021/09/13 00:13:54;;;;;;;7.70;1.40;;;20.30;84.00;;;;;;5154094;27;20109;-76
2021/09/13 00:16:21;;;;;;;8.40;1.42;;;20.30;83.90;;;;;;5152320;27;20426;-76
2021/09/13 00:18:49;;;;;;;11.85;2.15;;;20.30;83.70;;;;;;5153044;27;20097;-76
2021/09/13 00:21:15;;;;;;;8.00;1.50;;;20.30;83.80;;;;;;5151091;27;20449;-75
2021/09/13 00:23:40;;;;;;;9.57;1.88;;;20.30;83.20;;;;;;5152766;27;20110;-76
2021/09/13 00:26:06;;;;;;;6.57;1.67;;;20.20;83.00;;;;;;5153845;27;20453;-76
2021/09/13 00:28:32;;;;;;;9.25;1.83;;;20.30;83.00;;;;;;5150887;27;20439;-76
2021/09/13 00:30:58;;;;;;;10.80;1.50;;;20.30;82.90;;;;;;5135022;27;20027;-76
2021/09/13 00:33:24;;;;;;;11.80;2.05;;;20.30;82.80;;;;;;5151863;27;20076;-76
2021/09/13 00:35:50;;;;;;;11.00;1.95;;;20.20;82.60;;;;;;5143357;27;20114;-76
2021/09/13 00:38:16;;;;;;;12.50;1.83;;;20.20;82.50;;;;;;5129426;27;20113;-76
2021/09/13 00:40:42;;;;;;;6.30;1.52;;;20.20;82.40;;;;;;5153497;27;20106;-76
2021/09/13 00:43:08;;;;;;;6.57;1.30;;;20.20;82.30;;;;;;5134090;27;20565;-76
2021/09/13 00:45:35;;;;;;;8.40;1.48;;;20.20;82.30;;;;;;5149780;27;20126;-76
2021/09/13 00:48:00;;;;;;;9.38;1.25;;;20.20;82.10;;;;;;5152621;27;20042;-76
2021/09/13 00:50:26;;;;;;;12.25;2.20;;;20.20;82.00;;;;;;5151285;27;20026;-76
2021/09/13 00:52:54;;;;;;;7.90;1.50;;;20.20;81.80;;;;;;5152732;27;20038;-76
2021/09/13 00:55:21;;;;;;;7.68;1.55;;;20.20;81.60;;;;;;5152206;27;20034;-76
2021/09/13 00:57:49;;;;;;;11.57;1.60;;;20.20;81.50;;;;;;5150686;27;20022;-76
2021/09/13 01:00:16;;;;;;;9.95;1.65;;;20.20;81.40;;;;;;5133276;27;20081;-76
2021/09/13 01:02:41;;;;;;;4.75;1.42;;;20.20;81.30;;;;;;5153315;27;20039;-76
2021/09/13 01:05:08;;;;;;;10.18;2.08;;;20.20;81.30;;;;;;5151704;27;20476;-76
2021/09/13 01:07:34;;;;;;;9.32;1.77;;;20.10;81.20;;;;;;5133311;27;20022;-76
2021/09/13 01:10:00;;;;;;;7.05;1.52;;;20.10;81.10;;;;;;5131337;27;20019;-76
2021/09/13 01:12:27;;;;;;;7.30;1.50;;;20.20;81.20;;;;;;5135030;27;20030;-76
2021/09/13 01:14:55;;;;;;;11.38;1.75;;;20.10;81.10;;;;;;5135504;27;20186;-76
2021/09/13 01:17:24;;;;;;;18.92;1.40;;;20.10;81.20;;;;;;5136951;27;20023;-76
2021/09/13 01:19:50;;;;;;;8.93;1.63;;;20.10;81.20;;;;;;5152127;27;20027;-76
2021/09/13 01:22:19;;;;;;;9.55;1.58;;;20.10;81.30;;;;;;5157043;27;20103;-76
2021/09/13 01:24:56;;;;;;;11.35;1.85;;;20.10;81.40;;;;;;5136347;27;20107;-76
2021/09/13 01:27:22;;;;;;;10.50;2.33;;;20.10;81.50;;;;;;5138415;27;20075;-77
2021/09/13 01:29:49;;;;;;;11.30;1.52;;;20.00;81.60;;;;;;5136816;27;20114;-76
2021/09/13 01:32:15;;;;;;;11.98;1.70;;;20.10;81.70;;;;;;5136523;27;20026;-76
2021/09/13 01:34:49;;;;;;;8.85;1.60;;;20.00;81.70;;;;;;5136245;27;20030;-76
2021/09/13 01:37:18;;;;;;;14.10;1.85;;;20.00;81.80;;;;;;5138118;27;20050;-76
2021/09/13 01:39:44;;;;;;;9.93;1.60;;;20.00;81.80;;;;;;5136303;27;20481;-76
2021/09/13 01:42:12;;;;;;;6.65;1.50;;;20.00;81.70;;;;;;5136229;27;20133;-76
2021/09/13 01:44:38;;;;;;;5.63;1.60;;;20.00;81.70;;;;;;5134899;27;20121;-76
2021/09/13 01:47:04;;;;;;;13.38;2.40;;;20.00;81.60;;;;;;5136271;27;20074;-76
2021/09/13 01:49:30;;;;;;;3.40;1.38;;;19.90;81.50;;;;;;5137896;27;20023;-75
2021/09/13 01:51:57;;;;;;;8.65;2.08;;;19.90;81.50;;;;;;5134758;27;20027;-75
2021/09/13 01:54:23;;;;;;;11.15;3.03;;;19.90;81.40;;;;;;5135403;27;20015;-75
2021/09/13 01:56:50;;;;;;;6.50;1.50;;;19.90;81.40;;;;;;5136271;27;20019;-76
2021/09/13 01:59:27;;;;;;;6.65;1.75;;;19.90;81.30;;;;;;5137205;27;20019;-77
2021/09/13 02:01:53;;;;;;;7.15;1.30;;;19.90;81.30;;;;;;5127559;27;20033;-75
2021/09/13 02:04:19;;;;;;;11.02;1.70;;;19.80;81.20;;;;;;5134740;27;20027;-76
2021/09/13 02:06:45;;;;;;;9.77;1.65;;;19.80;81.20;;;;;;5154082;27;20022;-75
2021/09/13 02:09:11;;;;;;;7.22;1.55;;;19.80;81.20;;;;;;5152706;27;20019;-75
2021/09/13 02:11:38;;;;;;;4.90;1.35;;;19.70;81.10;;;;;;5129151;27;20019;-75
2021/09/13 02:14:05;;;;;;;6.65;1.45;;;19.70;81.10;;;;;;5118031;27;20023;-77
2021/09/13 02:16:31;;;;;;;6.75;1.55;;;19.70;81.10;;;;;;5136681;27;20063;-78
2021/09/13 02:18:59;;;;;;;9.55;1.67;;;19.60;80.90;;;;;;5129012;27;20541;-77
2021/09/13 02:21:25;;;;;;;7.38;1.70;;;19.60;81.20;;;;;;5124120;27;20130;-77
2021/09/13 02:23:52;;;;;;;7.75;1.60;;;19.60;81.30;;;;;;5135036;27;20015;-76
2021/09/13 02:26:18;;;;;;;6.60;1.67;;;19.60;81.30;;;;;;5153719;27;20034;-76
2021/09/13 02:28:44;;;;;;;13.00;1.65;;;19.60;81.40;;;;;;5153332;27;20019;-77
2021/09/13 02:31:10;;;;;;;9.35;1.58;;;19.60;81.50;;;;;;5134058;27;20090;-77
2021/09/13 02:33:35;;;;;;;10.90;1.50;;;19.50;81.50;;;;;;5136692;27;20027;-77
2021/09/13 02:36:03;;;;;;;5.13;1.33;;;19.50;81.60;;;;;;5134430;27;20022;-77
2021/09/13 02:38:28;;;;;;;9.95;1.48;;;19.50;81.60;;;;;;5134185;27;20023;-83
2021/09/13 02:40:55;;;;;;;7.20;1.58;;;19.50;81.60;;;;;;5136225;27;20027;-77
2021/09/13 02:43:21;;;;;;;5.32;1.50;;;19.50;81.70;;;;;;5152791;27;20034;-77
2021/09/13 02:45:46;;;;;;;13.43;1.73;;;19.50;81.70;;;;;;5153784;27;20097;-76
2021/09/13 02:48:12;;;;;;;7.95;1.30;;;19.40;81.60;;;;;;5152280;27;20075;-76
2021/09/13 02:50:38;;;;;;;5.90;1.50;;;19.40;81.60;;;;;;5134912;27;20046;-77
2021/09/13 02:53:04;;;;;;;12.23;1.98;;;19.40;81.70;;;;;;5133250;27;20055;-76
2021/09/13 02:55:31;;;;;;;5.35;1.42;;;19.40;81.80;;;;;;5134948;27;20011;-77
2021/09/13 02:57:57;;;;;;;11.25;1.30;;;19.30;81.80;;;;;;5153795;27;20373;-76
2021/09/13 03:00:23;;;;;;;6.00;1.58;;;19.30;81.80;;;;;;5133237;27;20346;-77
2021/09/13 03:02:57;;;;;;;8.13;1.60;;;19.30;81.80;;;;;;5134062;27;20035;-77
2021/09/13 03:05:22;;;;;;;7.40;1.63;;;19.30;82.00;;;;;;5152075;27;20021;-77
2021/09/13 03:07:50;;;;;;;7.80;1.65;;;19.30;82.10;;;;;;5135856;27;20018;-77
2021/09/13 03:10:16;;;;;;;10.38;1.65;;;19.30;82.20;;;;;;5151226;27;20025;-76
2021/09/13 03:12:42;;;;;;;10.02;1.92;;;19.20;82.20;;;;;;5153638;27;20110;-76
2021/09/13 03:15:09;;;;;;;9.43;1.60;;;19.20;82.30;;;;;;5135315;27;20031;-76
2021/09/13 03:17:36;;;;;;;10.07;1.80;;;19.20;82.30;;;;;;5131526;27;20030;-77
2021/09/13 03:20:03;;;;;;;4.75;1.38;;;19.20;82.20;;;;;;5134808;27;20030;-77
2021/09/13 03:22:30;;;;;;;4.13;1.40;;;19.20;82.10;;;;;;5133577;27;20047;-76
2021/09/13 03:24:56;;;;;;;9.25;1.25;;;19.20;82.10;;;;;;5134870;27;20070;-77
2021/09/13 03:27:24;;;;;;;8.60;1.60;;;19.10;82.10;;;;;;5134736;27;20113;-77
2021/09/13 03:29:49;;;;;;;7.85;1.33;;;19.10;82.10;;;;;;5134297;27;20139;-77
2021/09/13 03:32:15;;;;;;;13.15;1.60;;;19.10;82.90;;;;;;5134964;27;20385;-77
2021/09/13 03:34:42;;;;;;;6.85;2.30;;;19.10;82.30;;;;;;5130337;27;20033;-76
2021/09/13 03:37:07;;;;;;;13.85;1.48;;;19.10;82.40;;;;;;5134794;27;20419;-76
2021/09/13 03:39:34;;;;;;;8.68;1.67;;;19.00;82.40;;;;;;5133811;27;20029;-77
2021/09/13 03:42:00;;;;;;;7.82;1.83;;;19.10;82.70;;;;;;5134592;27;20121;-77
2021/09/13 03:44:26;;;;;;;9.20;1.55;;;19.00;82.70;;;;;;5135409;27;20431;-76
2021/09/13 03:46:56;;;;;;;10.27;1.70;;;19.00;82.60;;;;;;5134395;27;20027;-77
2021/09/13 03:49:39;;;;;;;9.05;1.80;;;19.00;82.50;;;;;;5134353;27;20031;-76
2021/09/13 03:52:08;;;;;;;13.55;1.75;;;19.00;82.40;;;;;;5133700;27;20076;-77
2021/09/13 03:54:36;;;;;;;8.90;1.65;;;18.90;82.40;;;;;;5135386;27;20023;-76
2021/09/13 03:57:03;;;;;;;9.70;1.92;;;18.90;82.60;;;;;;5133793;27;20095;-77
2021/09/13 03:59:29;;;;;;;10.25;1.92;;;18.90;82.80;;;;;;5152566;27;20018;-77
2021/09/13 04:01:54;;;;;;;12.00;1.73;;;18.90;82.90;;;;;;5134154;27;20053;-77
2021/09/13 04:04:24;;;;;;;11.18;1.77;;;18.90;83.00;;;;;;5135326;27;20477;-77
2021/09/13 04:07:01;;;;;;;5.68;1.70;;;18.90;83.10;;;;;;5133329;27;20114;-77
2021/09/13 04:12:37;;;;;;;9.82;2.05;;;19.00;83.00;;;;;;5153257;27;20086;-77
2021/09/13 04:15:32;;;;;;;12.50;2.00;;;18.90;83.00;;;;;;5137960;27;20030;-77
2021/09/13 04:18:04;;;;;;;12.10;1.73;;;18.90;83.10;;;;;;5153732;27;20075;-77
2021/09/13 04:20:53;;;;;;;9.80;1.90;;;18.90;83.20;;;;;;5149941;27;20386;-77
2021/09/13 04:23:33;;;;;;;3.30;1.73;;;18.90;83.30;;;;;;5134291;27;20019;-76
2021/09/13 04:26:25;;;;;;;7.75;2.00;;;18.80;83.10;;;;;;5110572;27;20042;-77
2021/09/13 04:29:03;;;;;;;4.47;1.77;;;18.80;83.00;;;;;;5151210;27;20034;-77
2021/09/13 04:32:04;;;;;;;9.35;1.88;;;18.80;83.10;;;;;;5115708;27;20122;-77
2021/09/13 04:34:50;;;;;;;8.73;1.80;;;18.80;82.90;;;;;;5133145;27;20030;-76
2021/09/13 04:37:33;;;;;;;3.77;1.77;;;18.70;83.10;;;;;;5135181;27;20029;-76
2021/09/13 04:40:17;;;;;;;9.80;2.10;;;18.60;83.20;;;;;;5151296;27;20267;-77
2021/09/13 04:43:04;;;;;;;7.60;2.60;;;18.70;83.50;;;;;;5132175;27;20116;-77
2021/09/13 04:45:43;;;;;;;9.05;2.30;;;18.70;83.80;;;;;;5126327;27;20482;-76
2021/09/13 04:48:38;;;;;;;7.38;1.85;;;18.70;83.90;;;;;;5137368;27;20031;-77
2021/09/13 04:51:22;;;;;;;11.57;2.03;;;18.70;83.70;;;;;;5138847;27;20033;-77
2021/09/13 04:54:04;;;;;;;8.33;2.50;;;18.70;83.50;;;;;;5138525;27;20023;-77
2021/09/13 04:56:31;;;;;;;10.80;2.38;;;18.60;83.40;;;;;;5136222;27;20015;-77
2021/09/13 04:58:57;;;;;;;9.75;2.25;;;18.60;83.80;;;;;;5138049;27;20035;-77
2021/09/13 05:01:23;;;;;;;9.02;2.50;;;18.60;83.80;;;;;;5138259;27;20037;-77
2021/09/13 05:03:49;;;;;;;11.32;2.63;;;18.60;83.90;;;;;;5135859;27;20015;-77
2021/09/13 05:06:18;;;;;;;6.50;2.30;;;18.60;84.00;;;;;;5137822;27;20027;-77
2021/09/13 05:08:44;;;;;;;7.55;2.30;;;18.50;84.00;;;;;;5134853;27;20394;-77
2021/09/13 05:11:10;;;;;;;12.30;2.50;;;18.60;84.10;;;;;;5136622;27;20034;-77
2021/09/13 05:13:36;;;;;;;11.93;2.97;;;18.60;84.00;;;;;;5136655;27;20319;-78
2021/09/13 05:16:04;;;;;;;6.00;1.90;;;18.50;83.90;;;;;;5126970;27;20022;-78
2021/09/13 05:18:35;;;;;;;6.78;2.80;;;18.50;83.90;;;;;;5137558;27;20027;-76
2021/09/13 05:21:01;;;;;;;4.28;2.03;;;18.50;83.70;;;;;;5154675;27;20055;-76
2021/09/13 05:23:28;;;;;;;9.57;2.20;;;18.50;83.90;;;;;;5137395;27;20023;-76
2021/09/13 05:25:54;;;;;;;7.22;2.20;;;18.40;83.90;;;;;;5133827;27;20359;-76
2021/09/13 05:28:20;;;;;;;5.35;2.63;;;18.50;84.00;;;;;;5136723;27;20172;-76
2021/09/13 05:30:46;;;;;;;11.43;2.10;;;18.40;83.90;;;;;;5132828;27;20037;-76
2021/09/13 05:33:12;;;;;;;6.68;2.55;;;18.40;83.90;;;;;;5135449;27;20050;-76
2021/09/13 05:35:38;;;;;;;7.13;2.70;;;18.40;84.00;;;;;;5134535;27;20073;-76
2021/09/13 05:38:09;;;;;;;8.10;2.42;;;18.40;84.00;;;;;;5133813;27;20624;-76
2021/09/13 05:40:39;;;;;;;4.50;2.40;;;18.40;84.10;;;;;;5134945;27;20488;-76
2021/09/13 05:43:07;;;;;;;14.65;2.42;;;18.40;84.20;;;;;;5134072;27;20042;-76
2021/09/13 05:45:35;;;;;;;15.38;2.20;;;18.40;84.20;;;;;;5135560;27;20443;-77
2021/09/13 05:48:02;;;;;;;12.98;3.15;;;18.40;84.30;;;;;;5137011;27;20375;-77
2021/09/13 05:50:30;;;;;;;13.88;2.30;;;18.40;84.20;;;;;;5137522;27;20019;-78
2021/09/13 05:52:57;;;;;;;6.05;1.92;;;18.40;84.00;;;;;;5135905;27;20019;-75
2021/09/13 05:55:27;;;;;;;9.20;2.42;;;18.40;83.90;;;;;;5136573;27;20107;-76
2021/09/13 05:57:53;;;;;;;11.02;2.88;;;18.40;83.80;;;;;;5136106;27;20030;-76
2021/09/13 06:00:19;;;;;;;7.78;2.45;;;18.30;83.60;;;;;;5135538;27;20034;-78
2021/09/13 06:02:45;;;;;;;6.05;2.10;;;18.30;83.70;;;;;;5134541;27;20041;-76
2021/09/13 06:05:27;;;;;;;9.70;2.95;;;18.30;83.80;;;;;;5153882;27;20023;-77
2021/09/13 06:07:56;;;;;;;6.85;1.98;;;18.20;83.60;;;;;;5131536;27;20194;-76
2021/09/13 06:10:22;;;;;;;16.30;2.15;;;18.30;83.80;;;;;;5132280;27;20049;-77
2021/09/13 06:12:48;;;;;;;7.43;2.25;;;18.20;83.70;;;;;;5150286;27;20389;-77
2021/09/13 06:15:14;;;;;;;9.50;2.63;;;18.20;83.70;;;;;;5132791;27;20581;-77
2021/09/13 06:17:43;;;;;;;9.73;2.35;;;18.20;83.80;;;;;;5131848;27;20027;-76
2021/09/13 06:20:11;;;;;;;8.25;2.40;;;18.20;83.80;;;;;;5133526;27;20029;-75
2021/09/13 06:22:38;;;;;;;5.22;2.28;;;18.20;83.70;;;;;;5154725;27;20046;-69
2021/09/13 06:25:09;;;;;;;10.43;2.50;;;18.10;83.70;;;;;;5136901;27;20046;-75
2021/09/13 06:27:38;;;;;;;4.05;1.98;;;18.10;83.90;;;;;;5136522;27;20022;-75
2021/09/13 06:30:04;;;;;;;6.68;2.10;;;18.10;84.20;;;;;;5154053;27;20029;-75
2021/09/13 06:32:31;;;;;;;5.35;2.17;;;18.20;84.30;;;;;;5134037;27;20403;-75
2021/09/13 06:34:56;;;;;;;6.88;2.47;;;18.20;84.40;;;;;;5131304;27;20023;-75
2021/09/13 06:37:31;;;;;;;5.60;2.00;;;18.20;84.60;;;;;;5134900;27;20027;-78
2021/09/13 06:39:58;;;;;;;7.28;1.90;;;18.20;84.50;;;;;;5136614;27;20031;-79
2021/09/13 06:42:25;;;;;;;9.93;2.40;;;18.20;84.50;;;;;;5153701;27;20038;-79
2021/09/13 06:45:07;;;;;;;9.85;2.50;;;18.20;84.60;;;;;;5134610;27;20027;-79
2021/09/13 06:47:45;;;;;;;7.68;1.73;;;18.20;84.60;;;;;;5152571;27;20023;-78
2021/09/13 06:50:24;;;;;;;6.57;1.80;;;18.30;84.70;;;;;;5133133;27;20037;-78
2021/09/13 06:52:52;;;;;;;5.90;1.75;;;18.20;84.40;;;;;;5133745;27;20015;-78
2021/09/13 06:55:18;;;;;;;8.02;1.60;;;18.30;84.00;;;;;;5126599;27;20555;-78
2021/09/13 06:57:44;;;;;;;14.50;2.95;;;18.30;83.90;;;;;;5154202;27;20467;-76
2021/09/13 07:00:13;;;;;;;6.88;2.45;;;18.30;84.00;;;;;;5152392;27;20031;-76
2021/09/13 07:02:41;;;;;;;8.38;2.00;;;18.30;84.30;;;;;;5153371;27;20047;-75
2021/09/13 07:05:08;;;;;;;12.20;2.08;;;18.30;84.50;;;;;;5151053;27;20467;-76
2021/09/13 07:07:35;;;;;;;7.40;1.73;;;18.30;85.00;;;;;;5150965;27;20031;-75
2021/09/13 07:10:02;;;;;;;5.50;1.70;;;18.30;84.50;;;;;;5153544;27;20019;-75
2021/09/13 07:12:28;;;;;;;6.38;1.65;;;18.40;84.90;;;;;;5153802;27;20083;-76
2021/09/13 07:14:54;;;;;;;4.20;1.52;;;18.50;84.50;;;;;;5152566;27;20666;-75
2021/09/13 07:17:20;;;;;;;8.65;1.63;;;18.50;84.50;;;;;;5148295;27;20030;-74
2021/09/13 07:19:48;;;;;;;8.02;2.28;;;18.60;84.80;;;;;;5141801;27;20034;-75
2021/09/13 07:22:13;;;;;;;9.35;1.92;;;18.60;85.00;;;;;;5150638;27;20544;-75
2021/09/13 07:24:42;;;;;;;11.73;2.40;;;18.70;85.10;;;;;;5150631;27;20027;-76
2021/09/13 07:27:08;;;;;;;5.28;1.60;;;18.70;85.00;;;;;;5152006;27;20070;-75
2021/09/13 07:29:33;;;;;;;7.07;1.90;;;18.80;85.10;;;;;;5153137;27;20034;-76
2021/09/13 07:32:01;;;;;;;9.23;1.70;;;18.90;85.00;;;;;;5146902;27;20027;-76
2021/09/13 07:34:27;;;;;;;16.15;2.92;;;18.90;85.00;;;;;;5142662;27;20031;-76
2021/09/13 07:36:55;;;;;;;13.52;2.20;;;18.90;84.90;;;;;;5152548;27;20027;-75
2021/09/13 07:39:24;;;;;;;8.18;1.55;;;18.90;84.80;;;;;;5128615;27;20390;-76
2021/09/13 07:41:50;;;;;;;6.25;1.63;;;18.90;84.80;;;;;;5151220;27;20234;-75
2021/09/13 07:44:16;;;;;;;4.93;1.40;;;19.00;84.40;;;;;;5150623;27;20105;-75
2021/09/13 07:46:42;;;;;;;4.03;1.63;;;18.90;84.00;;;;;;5151118;27;20026;-75
2021/09/13 07:49:07;;;;;;;4.28;0.95;;;19.00;83.70;;;;;;5152945;27;20080;-74
2021/09/13 07:51:33;;;;;;;9.38;1.48;;;19.10;83.40;;;;;;5150842;27;20035;-75
2021/09/13 07:53:59;;;;;;;5.70;1.33;;;19.10;83.00;;;;;;5152561;27;20042;-75
2021/09/13 07:56:25;;;;;;;4.88;1.50;;;19.10;82.90;;;;;;5153621;27;20035;-75
2021/09/13 07:58:50;;;;;;;4.85;1.33;;;19.10;82.60;;;;;;5151380;27;20031;-74
2021/09/13 08:01:16;;;;;;;3.20;1.45;;;19.20;82.80;;;;;;5152265;27;20041;-74
2021/09/13 08:03:42;;;;;;;1.38;0.80;;;19.20;83.00;;;;;;5133247;27;20027;-75
2021/09/13 08:06:08;;;;;;;6.50;1.40;;;19.20;82.70;;;;;;5151959;27;20049;-74
2021/09/13 08:08:35;;;;;;;6.53;1.30;;;19.20;82.60;;;;;;5150136;27;20352;-75
2021/09/13 08:11:01;;;;;;;9.35;1.42;;;19.20;82.60;;;;;;5152379;27;20417;-75
2021/09/13 08:13:28;;;;;;;3.58;1.10;;;19.20;82.50;;;;;;5152598;27;20015;-75
2021/09/13 08:15:54;;;;;;;3.88;1.10;;;19.30;82.50;;;;;;5149675;27;20035;-75
2021/09/13 08:18:20;;;;;;;4.40;1.30;;;19.30;82.50;;;;;;5150913;27;20393;-75
2021/09/13 08:20:46;;;;;;;7.80;1.20;;;19.30;82.10;;;;;;5150669;27;20043;-75
2021/09/13 08:23:12;;;;;;;3.90;0.90;;;19.40;82.00;;;;;;5153062;27;20030;-76
2021/09/13 08:25:40;;;;;;;4.80;1.10;;;19.40;81.10;;;;;;5153064;27;20478;-75
2021/09/13 08:28:20;;;;;;;3.63;1.20;;;19.50;81.70;;;;;;5149917;27;20117;-75
2021/09/13 08:30:49;;;;;;;5.65;1.10;;;19.50;80.60;;;;;;5150835;27;20030;-75
2021/09/13 08:33:16;;;;;;;7.55;1.20;;;19.50;79.90;;;;;;5153053;27;20030;-74
2021/09/13 08:35:42;;;;;;;2.13;1.23;;;19.50;79.50;;;;;;5144760;27;20033;-75
2021/09/13 08:38:08;;;;;;;4.25;1.40;;;19.50;79.40;;;;;;5151084;27;20118;-76
2021/09/13 08:40:34;;;;;;;9.02;1.35;;;19.50;79.50;;;;;;5116845;27;20014;-74
2021/09/13 08:43:02;;;;;;;4.22;1.08;;;19.60;79.50;;;;;;5146026;27;20398;-75
2021/09/13 08:53:34;;;;;;;5.78;1.10;;;19.70;78.90;;;;;;5149503;27;20474;-76
2021/09/13 08:56:02;;;;;;;4.53;0.82;;;19.70;78.70;;;;;;5151166;27;20430;-75
2021/09/13 08:58:32;;;;;;;4.43;0.80;;;19.70;78.30;;;;;;5147668;27;20054;-77
2021/09/13 09:00:58;;;;;;;4.35;1.00;;;19.70;78.20;;;;;;5141135;27;20062;-76
2021/09/13 09:03:25;;;;;;;3.90;1.25;;;19.70;78.30;;;;;;5149217;27;20073;-75
2021/09/13 09:05:52;;;;;;;4.00;1.20;;;19.70;78.20;;;;;;5147577;27;20118;-75
2021/09/13 09:08:28;;;;;;;3.20;1.13;;;19.70;78.50;;;;;;5146898;27;20087;-75
2021/09/13 09:10:56;;;;;;;3.75;0.90;;;19.80;78.50;;;;;;5147854;27;20034;-76
2021/09/13 09:13:22;;;;;;;4.95;1.10;;;19.80;78.80;;;;;;5152342;27;20034;-75
2021/09/13 09:16:01;;;;;;;2.17;0.95;;;19.80;78.90;;;;;;5149204;27;20031;-75
2021/09/13 09:18:41;;;;;;;1.20;0.60;;;19.80;79.00;;;;;;5149737;27;20030;-74
2021/09/13 09:21:29;;;;;;;7.60;1.30;;;19.80;78.90;;;;;;5149482;27;20043;-75
2021/09/13 09:24:04;;;;;;;1.75;0.70;;;19.80;78.80;;;;;;5146982;27;20062;-75
2021/09/13 09:26:30;;;;;;;2.80;0.80;;;19.80;78.60;;;;;;5149397;27;20474;-75
2021/09/13 09:28:57;;;;;;;4.75;0.63;;;19.80;78.40;;;;;;5152071;27;20118;-76
2021/09/13 09:31:59;;;;;;;4.88;1.00;;;19.80;78.10;;;;;;5154198;27;20381;-75
2021/09/13 09:34:28;;;;;;;3.47;0.98;;;19.90;78.20;;;;;;5048278;28;20388;-76
2021/09/13 09:37:06;;;;;;;9.95;1.10;;;19.90;78.10;;;;;;5127578;27;20031;-75
2021/09/13 09:39:36;;;;;;;1.83;0.80;;;19.90;78.00;;;;;;5153349;27;20034;-75
2021/09/13 09:42:04;;;;;;;5.03;0.90;;;20.00;77.80;;;;;;5154085;27;20083;-76
2021/09/13 09:44:30;;;;;;;5.05;1.15;;;20.00;77.60;;;;;;5153911;27;20079;-76
2021/09/13 09:47:10;;;;;;;2.85;0.82;;;20.00;77.30;;;;;;5153083;27;20027;-76
2021/09/13 09:49:51;;;;;;;2.35;0.85;;;20.00;77.00;;;;;;5154549;27;20055;-75
2021/09/13 09:52:37;;;;;;;2.33;0.85;;;20.00;76.70;;;;;;5153602;27;20031;-76
2021/09/13 09:55:09;;;;;;;2.67;0.70;;;20.00;76.60;;;;;;5154355;27;20023;-75
2021/09/13 09:57:35;;;;;;;5.72;0.90;;;20.10;76.10;;;;;;5155362;27;20023;-76
2021/09/13 10:00:19;;;;;;;4.15;0.90;;;20.10;76.00;;;;;;5154321;27;20019;-77
2021/09/13 10:02:45;;;;;;;0.70;0.55;;;20.10;75.80;;;;;;5146805;27;20049;-76
2021/09/13 10:05:11;;;;;;;3.40;1.00;;;20.10;75.70;;;;;;5153059;27;20027;-78
2021/09/13 10:07:40;;;;;;;1.17;0.65;;;20.20;75.90;;;;;;5153226;27;20046;-75
2021/09/13 10:10:06;;;;;;;1.50;0.50;;;20.20;75.60;;;;;;5151119;27;20385;-75
2021/09/13 10:12:32;;;;;;;1.38;0.52;;;20.20;75.20;;;;;;5151551;27;20084;-75
2021/09/13 10:15:01;;;;;;;1.63;0.60;;;20.30;75.00;;;;;;5155903;27;20023;-75
2021/09/13 10:17:27;;;;;;;4.60;0.80;;;20.30;74.40;;;;;;5150151;27;20031;-76
2021/09/13 10:19:52;;;;;;;2.25;0.98;;;20.30;75.20;;;;;;5147631;27;20028;-75
2021/09/13 10:22:18;;;;;;;1.45;0.82;;;20.30;75.30;;;;;;5135669;27;20513;-75
2021/09/13 10:24:47;;;;;;;0.88;0.43;;;20.30;75.00;;;;;;5146034;27;20051;-75
2021/09/13 10:27:15;;;;;;;5.68;0.80;;;20.40;74.30;;;;;;5153315;27;20030;-74
2021/09/13 10:29:43;;;;;;;1.83;0.73;;;20.40;73.90;;;;;;5153512;27;20561;-76
2021/09/13 10:32:11;;;;;;;0.70;0.55;;;20.50;73.70;;;;;;5149715;27;20452;-74
2021/09/13 10:34:40;;;;;;;2.38;0.90;;;20.50;72.80;;;;;;5151387;27;20434;-76
2021/09/13 10:37:48;;;;;;;1.33;0.82;;;20.60;72.90;;;;;;5153141;27;20022;-74
2021/09/13 10:40:28;;;;;;;2.45;0.60;;;20.60;73.10;;;;;;5153679;27;20040;-74
2021/09/13 10:43:15;;;;;;;1.30;0.68;;;20.70;72.10;;;;;;5151215;27;20171;-76
2021/09/13 10:45:41;;;;;;;1.92;0.85;;;20.70;72.60;;;;;;5147874;27;20519;-76
2021/09/13 10:48:20;;;;;;;2.10;0.70;;;20.80;72.10;;;;;;5151200;27;20081;-77
2021/09/13 10:50:56;;;;;;;4.05;0.70;;;20.90;71.50;;;;;;5153541;27;20056;-75
2021/09/13 10:53:27;;;;;;;0.38;0.38;;;20.90;71.50;;;;;;5150922;27;20027;-76
2021/09/13 10:55:59;;;;;;;7.22;0.70;;;21.00;71.10;;;;;;5123551;27;20030;-75
2021/09/13 10:58:44;;;;;;;2.55;0.90;;;21.00;71.30;;;;;;5149699;27;20034;-75
2021/09/13 11:01:21;;;;;;;6.25;0.98;;;21.10;70.70;;;;;;5153506;27;20418;-75
2021/09/13 11:03:55;;;;;;;2.47;0.88;;;21.10;71.10;;;;;;5150993;27;20026;-75
2021/09/13 11:06:21;;;;;;;1.42;0.80;;;21.10;70.90;;;;;;5153610;27;20105;-75
2021/09/13 11:08:48;;;;;;;6.28;0.85;;;21.10;71.00;;;;;;5151503;27;20399;-76
2021/09/13 11:11:27;;;;;;;3.33;0.80;;;21.10;70.40;;;;;;5154093;27;20121;-75
2021/09/13 11:14:00;;;;;;;4.32;1.30;;;21.20;70.80;;;;;;5151783;27;20158;-76
2021/09/13 11:16:27;;;;;;;4.93;1.17;;;21.20;70.80;;;;;;5144478;27;20034;-76
2021/09/13 11:18:54;;;;;;;3.47;0.70;;;21.20;71.20;;;;;;5153112;27;20942;-76
2021/09/13 11:21:22;;;;;;;2.83;0.85;;;21.20;70.90;;;;;;5151424;27;20046;-75
2021/09/13 11:23:58;;;;;;;2.75;1.00;;;21.20;70.60;;;;;;5148288;27;20030;-76
2021/09/13 11:26:49;;;;;;;3.45;0.90;;;21.40;70.90;;;;;;5150999;27;20087;-76
2021/09/13 11:29:19;;;;;;;3.13;0.90;;;21.40;71.10;;;;;;5153048;27;20022;-76
2021/09/13 11:31:49;;;;;;;4.05;0.80;;;21.40;71.00;;;;;;5146351;27;20470;-76
2021/09/13 11:34:15;;;;;;;6.80;1.30;;;21.30;70.40;;;;;;5153161;27;20030;-76
2021/09/13 11:37:02;;;;;;;2.15;0.88;;;21.40;70.60;;;;;;5150446;27;20026;-75
2021/09/13 11:39:46;;;;;;;3.15;0.90;;;21.40;70.50;;;;;;5153468;27;20023;-76
2021/09/13 11:42:17;;;;;;;2.22;0.80;;;21.50;71.10;;;;;;5151331;27;20031;-77
2021/09/13 11:44:45;;;;;;;2.55;0.80;;;21.50;71.00;;;;;;5150750;27;20037;-76
2021/09/13 11:47:14;;;;;;;6.72;0.82;;;21.50;70.40;;;;;;5152602;27;20027;-76
2021/09/13 11:49:43;;;;;;;3.78;0.98;;;21.50;69.10;;;;;;5152305;27;20030;-77
2021/09/13 11:52:15;;;;;;;4.72;0.88;;;21.50;69.50;;;;;;5150865;27;20022;-78
2021/09/13 11:54:49;;;;;;;2.90;0.60;;;21.50;69.40;;;;;;5144775;27;20113;-77
2021/09/13 11:57:28;;;;;;;4.38;1.10;;;21.60;68.90;;;;;;5150814;27;20050;-76
2021/09/13 11:59:59;;;;;;;1.83;0.98;;;21.70;69.40;;;;;;5151095;27;20496;-75
2021/09/13 12:02:29;;;;;;;8.60;1.42;;;21.70;70.10;;;;;;5151654;27;20038;-75
2021/09/13 12:04:55;;;;;;;3.28;1.02;;;21.80;70.00;;;;;;5151396;27;20054;-75
2021/09/13 12:07:21;;;;;;;7.57;1.10;;;21.80;70.10;;;;;;5151186;27;20061;-75
2021/09/13 12:09:49;;;;;;;2.80;0.77;;;21.80;70.00;;;;;;5150231;27;20046;-76
2021/09/13 12:12:24;;;;;;;1.70;0.80;;;21.90;70.00;;;;;;5152194;27;20034;-76
2021/09/13 12:14:53;;;;;;;2.60;1.23;;;22.00;69.70;;;;;;5148145;27;20035;-76
2021/09/13 12:17:20;;;;;;;2.20;0.82;;;22.00;69.70;;;;;;5147154;27;20026;-75
2021/09/13 12:20:20;;;;;;;3.63;0.95;;;22.00;69.60;;;;;;5140607;27;20025;-75
2021/09/13 12:23:07;;;;;;;3.25;1.02;;;22.00;69.40;;;;;;5149879;27;20043;-75
2021/09/13 12:25:45;;;;;;;4.15;1.05;;;22.10;69.40;;;;;;5136404;27;20041;-75
2021/09/13 12:28:12;;;;;;;10.00;1.20;;;22.10;69.20;;;;;;5151853;27;20114;-76
2021/09/13 12:30:41;;;;;;;2.88;0.90;;;22.00;68.50;;;;;;5150911;27;20027;-76
2021/09/13 12:33:11;;;;;;;5.00;1.17;;;22.00;68.10;;;;;;5150877;27;20019;-76
2021/09/13 12:35:52;;;;;;;3.80;1.05;;;22.10;69.20;;;;;;5152455;27;20033;-76
2021/09/13 12:38:22;;;;;;;2.40;0.63;;;22.10;69.10;;;;;;5146286;27;20101;-76
2021/09/13 12:40:59;;;;;;;4.63;1.00;;;22.10;69.80;;;;;;5151475;27;20050;-76
2021/09/13 12:43:39;;;;;;;3.35;1.05;;;22.10;68.90;;;;;;5150010;27;20053;-75
2021/09/13 12:46:11;;;;;;;1.38;0.80;;;22.10;68.20;;;;;;5147889;27;20359;-74
2021/09/13 12:48:39;;;;;;;3.03;0.70;;;22.20;68.90;;;;;;5149519;27;20107;-76
2021/09/13 12:51:10;;;;;;;5.65;1.10;;;22.20;68.70;;;;;;5150092;27;20026;-75
2021/09/13 12:53:36;;;;;;;3.15;1.20;;;22.30;68.30;;;;;;5150302;27;20485;-75
2021/09/13 12:56:14;;;;;;;2.75;0.90;;;22.30;68.60;;;;;;5148021;27;20021;-76
2021/09/13 12:58:39;;;;;;;1.92;1.10;;;22.30;68.10;;;;;;5149025;27;20042;-75
2021/09/13 13:01:10;;;;;;;2.72;0.80;;;22.30;68.10;;;;;;5149099;27;20015;-75
2021/09/13 13:03:36;;;;;;;9.00;1.10;;;22.30;68.10;;;;;;5149000;27;20135;-75
2021/09/13 13:06:14;;;;;;;3.60;1.10;;;22.40;69.20;;;;;;5152686;27;20106;-75
2021/09/13 13:08:40;;;;;;;2.38;0.90;;;22.40;69.30;;;;;;5149273;27;20042;-75
2021/09/13 13:11:05;;;;;;;3.22;0.95;;;22.40;69.30;;;;;;5154640;27;20042;-75